Aérodrome :
LOGIN :

S'inscrire | Disclaimer

   EN    FR    IT 

 










Légende :    VFR   VFR Marginal   IFR   IFR Intensif   IFR Très Intensif
Visi : 
Plafond : 
>= 8 km
>= 3000ft
5 à 8 km
1000 à 3000 ft
1500m à 5 km
500 à 1000 ft
800 à 1500m
200 à 500 ft
< 800m
< 200 ft
Symboles :   Orages  Brouillard  Fortes neiges  Fortes précipitations  Vent > 20 kt
SIGMETs :   Divers  Orages  Givrage  Turbulence  Onde Orograph.  Cendres Volcan.







- Altitude de l'aérodrome : 915 ft
- Code IATA : LUG


LSZA - Lugano

DERNIER METAR :
  • 132050Z 20004KT 120V230 9999 FEW090 BKN100 03/M03 Q1016 NOSIG

METARs EXPIRÉS :
  • 132020Z VRB01KT 9999 FEW090 BKN100 03/M03 Q1015 NOSIG
  • 131950Z VRB01KT 9999 FEW085 BKN100 03/M03 Q1015 NOSIG
  • 131920Z VRB02KT 9999 FEW085 BKN100 03/M04 Q1015 NOSIG
  • 131850Z VRB02KT 9999 FEW085 BKN100 02/M04 Q1015 NOSIG
  • 131820Z VRB01KT 9999 BKN100 03/M04 Q1014 NOSIG

TAF TAF LSZA
Valide du 13 à 15h jusqu'au 14 à 00h UTC


131425Z 1315/1324 VRB03KT 9999 SCT060 BKN090
PROB30
TEMPO 1316/1324 -SHSN
ATIS : +41 22 417 40 88
Pas de NOTAMs connus pour ce terrain.



MET'MAP, la Météo Aéronautique d'un coup d'oeil ! - Copyright ORBIFLY Décembre 2007 - Disclaimer

ORBIFLY MET'MAP TEAM :

Programmation & Développement : Alexandra Zaïnal
Conception & Développement : Baudouin d'Aumeries
Co-Programmation & Développement : Marc-Olivier Méhu
Soutien technique & logistique : Manuel Goepfert

Contact : metmap@orbifly.com




SOURCES & CREDITS :

   NOAA